Time;durP1;ratioP1;P1;durP2;ratioP2;P2;SDS_P1;SDS_P2;PMS_P1;PMS_P2;Temp;Humidity;BMP_temperature;BMP_pressure;BME280_temperature;BME280_humidity;BME280_pressure;Samples;Min_cycle;Max_cycle;Signal;HPM_P1;HPM_P2
2021/03/15 00:00:57;;;;;;;6.35;2.80;;;;;;;2.44;88.82;98593.78;4992847;28;20030;-75
2021/03/15 00:03:22;;;;;;;7.85;3.00;;;;;;;2.56;88.98;98605.88;4991913;28;20058;-75
2021/03/15 00:05:48;;;;;;;5.95;3.25;;;;;;;2.61;88.59;98608.06;5027709;28;20021;-75
2021/03/15 00:08:13;;;;;;;6.20;3.20;;;;;;;2.64;88.69;98624.59;5011210;28;20018;-74
2021/03/15 00:10:39;;;;;;;5.53;3.25;;;;;;;2.49;88.49;98610.19;5022379;28;20033;-74
2021/03/15 00:13:07;;;;;;;8.20;3.75;;;;;;;2.48;89.16;98616.50;5013271;28;20490;-75
2021/03/15 00:15:32;;;;;;;7.00;3.17;;;;;;;2.41;89.45;98602.09;5006933;28;20022;-75
2021/03/15 00:17:58;;;;;;;8.25;3.55;;;;;;;2.58;88.45;98595.03;5025559;28;20030;-75
2021/03/15 00:20:23;;;;;;;7.30;4.00;;;;;;;2.62;88.62;98609.75;5013665;28;20079;-75
2021/03/15 00:22:49;;;;;;;7.97;3.28;;;;;;;2.69;88.83;98607.28;4980522;28;20559;-75
2021/03/15 00:25:16;;;;;;;6.45;3.42;;;;;;;2.55;88.92;98590.00;4975430;28;20026;-74
2021/03/15 00:27:42;;;;;;;6.90;3.10;;;;;;;2.55;88.48;98593.53;5015675;28;20169;-76
2021/03/15 00:30:10;;;;;;;5.82;3.00;;;;;;;2.68;89.28;98610.97;5011287;28;20124;-75
2021/03/15 00:32:36;;;;;;;8.13;3.03;;;;;;;2.67;89.00;98601.25;5022673;28;20108;-75
2021/03/15 00:35:07;;;;;;;4.93;2.70;;;;;;;2.60;89.46;98593.06;5030288;28;20506;-75
2021/03/15 00:37:32;;;;;;;7.35;2.53;;;;;;;2.57;89.48;98580.84;5013067;28;20096;-75
2021/03/15 00:39:57;;;;;;;5.95;3.10;;;;;;;2.69;89.18;98592.09;5031778;28;20479;-75
2021/03/15 00:42:23;;;;;;;4.45;2.72;;;;;;;2.63;89.36;98584.72;5022444;28;20060;-75
2021/03/15 00:44:48;;;;;;;6.10;2.72;;;;;;;2.86;89.13;98590.34;4997756;28;20033;-74
2021/03/15 00:47:13;;;;;;;6.45;2.60;;;;;;;2.57;89.39;98547.97;5009527;28;20024;-75
2021/03/15 00:49:39;;;;;;;4.82;2.53;;;;;;;2.69;89.06;98568.03;5010954;28;20022;-75
2021/03/15 00:52:04;;;;;;;4.85;2.88;;;;;;;2.69;89.12;98554.69;5024999;28;20106;-75
2021/03/15 00:54:30;;;;;;;7.20;2.33;;;;;;;2.77;89.11;98567.25;5015980;28;20053;-75
2021/03/15 00:56:55;;;;;;;4.28;2.22;;;;;;;2.81;89.19;98577.47;4996808;28;20022;-75
2021/03/15 00:59:20;;;;;;;7.43;2.40;;;;;;;2.72;88.59;98545.53;5012208;28;20034;-75
2021/03/15 01:01:46;;;;;;;9.45;2.40;;;;;;;2.85;88.63;98573.47;5020416;28;20022;-75
2021/03/15 01:04:14;;;;;;;5.00;2.88;;;;;;;2.92;88.92;98580.88;5027849;28;20463;-75
2021/03/15 01:06:41;;;;;;;5.38;2.63;;;;;;;2.92;89.00;98578.19;5035729;28;20022;-75
2021/03/15 01:09:06;;;;;;;3.90;2.10;;;;;;;2.90;88.79;98564.16;5008647;28;20025;-76
2021/03/15 01:11:31;;;;;;;3.75;2.35;;;;;;;2.72;88.83;98540.19;5003601;28;20022;-76
2021/03/15 01:13:57;;;;;;;5.03;2.28;;;;;;;2.85;88.79;98561.94;5021616;28;20032;-76
2021/03/15 01:16:22;;;;;;;5.90;2.33;;;;;;;2.92;89.16;98559.47;5021575;28;20033;-75
2021/03/15 01:18:47;;;;;;;5.85;2.03;;;;;;;2.77;88.43;98548.56;5033898;28;20025;-75
2021/03/15 01:21:14;;;;;;;6.68;2.25;;;;;;;2.71;88.80;98531.34;5027429;28;20017;-75
2021/03/15 01:23:39;;;;;;;4.43;2.00;;;;;;;2.85;88.61;98560.09;5033905;28;20109;-75
2021/03/15 01:26:05;;;;;;;5.40;2.58;;;;;;;2.84;88.23;98536.25;5000163;28;20164;-75
2021/03/15 01:28:30;;;;;;;3.88;2.17;;;;;;;2.82;88.43;98544.41;5016664;28;20041;-75
2021/03/15 01:30:55;;;;;;;6.18;2.35;;;;;;;2.75;88.95;98540.72;5032769;28;20025;-75
2021/03/15 01:33:21;;;;;;;7.78;2.45;;;;;;;2.67;88.44;98516.63;5011912;28;20026;-75
2021/03/15 01:35:46;;;;;;;5.03;2.10;;;;;;;2.89;88.66;98547.28;4996190;28;20547;-74
2021/03/15 01:38:12;;;;;;;11.48;2.53;;;;;;;2.94;88.63;98565.50;5014260;28;20030;-75
2021/03/15 01:40:38;;;;;;;7.35;2.53;;;;;;;3.00;88.69;98554.16;4997282;28;20029;-75
2021/03/15 01:43:05;;;;;;;12.13;2.85;;;;;;;3.04;88.34;98555.53;5025681;28;20033;-74
2021/03/15 01:45:31;;;;;;;7.55;2.60;;;;;;;3.06;88.23;98562.38;5034471;28;20089;-74
2021/03/15 01:47:56;;;;;;;8.80;2.33;;;;;;;2.97;87.98;98533.13;5000969;28;20081;-75
2021/03/15 01:50:22;;;;;;;9.10;2.65;;;;;;;3.06;87.52;98549.00;5012257;28;20021;-74
2021/03/15 01:52:50;;;;;;;11.85;3.20;;;;;;;3.01;87.46;98545.16;5034905;28;20029;-74
2021/03/15 01:55:16;;;;;;;9.00;2.50;;;;;;;3.13;87.28;98541.19;5016661;28;20087;-74
2021/03/15 01:57:42;;;;;;;6.97;2.67;;;;;;;3.04;87.48;98526.13;5033047;28;20029;-74
2021/03/15 02:00:10;;;;;;;10.13;3.72;;;;;;;3.04;87.16;98529.63;5033690;28;20403;-75
2021/03/15 02:02:37;;;;;;;5.10;2.45;;;;;;;3.08;87.66;98533.66;5021671;28;20088;-74
2021/03/15 02:05:04;;;;;;;11.60;2.92;;;;;;;3.09;87.33;98521.13;5016467;28;20040;-74
2021/03/15 02:07:30;;;;;;;7.15;2.85;;;;;;;2.68;87.18;98469.41;5018410;28;20026;-74
2021/03/15 02:09:55;;;;;;;6.47;2.72;;;;;;;2.96;87.48;98528.75;5016049;28;20080;-75
2021/03/15 02:12:45;;;;;;;7.13;2.35;;;;;;;2.97;87.03;98522.44;5015967;28;20044;-75
2021/03/15 02:15:29;;;;;;;7.53;2.63;;;;;;;2.85;87.33;98511.19;5038868;28;20026;-75
2021/03/15 02:18:21;;;;;;;8.32;3.03;;;;;;;2.67;88.23;98497.91;5029860;28;20038;-74
2021/03/15 02:21:20;;;;;;;7.50;2.75;;;;;;;2.56;87.90;98492.88;5035987;28;20033;-75
2021/03/15 02:23:50;;;;;;;10.40;3.10;;;;;;;2.51;88.38;98488.00;5034632;28;20029;-74
2021/03/15 02:26:16;;;;;;;6.05;2.80;;;;;;;2.48;88.32;98487.50;5028506;28;20041;-75
2021/03/15 02:28:47;;;;;;;8.65;3.38;;;;;;;2.44;88.70;98499.47;5032442;28;20025;-75
2021/03/15 02:31:30;;;;;;;12.82;3.03;;;;;;;2.56;88.56;98488.38;5005735;28;20403;-75
2021/03/15 02:34:26;;;;;;;8.75;3.28;;;;;;;2.55;88.16;98481.34;5018629;28;20030;-74
2021/03/15 02:36:53;;;;;;;7.22;3.22;;;;;;;2.48;88.51;98474.97;5029394;28;20517;-75
2021/03/15 02:39:28;;;;;;;6.43;2.83;;;;;;;2.29;88.77;98468.06;5021101;28;20033;-75
2021/03/15 02:41:59;;;;;;;9.05;3.35;;;;;;;2.39;88.87;98468.78;5003381;28;20033;-74
2021/03/15 02:44:26;;;;;;;5.32;2.60;;;;;;;2.49;88.45;98460.66;5041852;23;20045;-75
2021/03/15 02:46:53;;;;;;;10.60;3.50;;;;;;;2.48;88.82;98458.97;5017679;28;20030;-76
2021/03/15 02:49:21;;;;;;;6.85;2.45;;;;;;;2.59;88.15;98445.34;5019342;28;20029;-76
2021/03/15 02:51:49;;;;;;;8.30;3.50;;;;;;;2.62;87.80;98449.53;4998149;28;20065;-76
2021/03/15 02:54:16;;;;;;;6.47;2.88;;;;;;;2.70;87.83;98454.03;5003791;28;20361;-75
2021/03/15 02:56:47;;;;;;;11.63;2.90;;;;;;;2.69;87.71;98455.88;5005252;28;20080;-75
2021/03/15 02:59:14;;;;;;;8.77;3.15;;;;;;;2.64;87.80;98439.50;5000262;28;20148;-75
2021/03/15 03:01:40;;;;;;;13.13;4.13;;;;;;;2.62;87.85;98439.66;5054935;28;20029;-75
2021/03/15 03:04:09;;;;;;;7.63;3.20;;;;;;;2.63;87.74;98421.81;5018800;28;20024;-75
2021/03/15 03:06:36;;;;;;;10.88;3.53;;;;;;;2.59;87.79;98433.78;5023819;28;20009;-75
2021/03/15 03:09:04;;;;;;;5.72;3.40;;;;;;;2.54;87.89;98414.75;5049720;28;20039;-75
2021/03/15 03:11:32;;;;;;;11.48;3.58;;;;;;;2.56;87.57;98416.25;5055888;28;20063;-75
2021/03/15 03:13:59;;;;;;;11.38;3.15;;;;;;;2.49;88.24;98411.72;5038009;28;20089;-74
2021/03/15 03:16:29;;;;;;;8.77;4.00;;;;;;;2.48;88.78;98416.22;5016605;28;20026;-75
2021/03/15 03:18:57;;;;;;;10.40;3.40;;;;;;;2.38;88.50;98408.38;5034350;28;20040;-76
2021/03/15 03:21:25;;;;;;;11.65;3.42;;;;;;;2.37;88.44;98401.34;5028450;28;20033;-76
2021/03/15 03:23:53;;;;;;;9.23;4.03;;;;;;;2.40;88.29;98402.88;5022006;28;20080;-76
2021/03/15 03:26:24;;;;;;;9.98;3.85;;;;;;;2.37;88.36;98387.16;5032997;28;20033;-75
2021/03/15 03:28:52;;;;;;;9.25;3.15;;;;;;;2.33;88.29;98381.31;5013772;28;20021;-75
2021/03/15 03:31:19;;;;;;;7.93;3.50;;;;;;;2.41;88.51;98389.38;5012166;28;20026;-75
2021/03/15 03:33:45;;;;;;;11.57;3.60;;;;;;;2.47;88.42;98381.69;5013727;28;20479;-75
2021/03/15 03:36:11;;;;;;;16.08;3.55;;;;;;;2.54;88.35;98388.03;5013139;28;20415;-75
2021/03/15 03:38:36;;;;;;;6.85;2.83;;;;;;;2.66;88.08;98396.59;5032867;28;20032;-75
2021/03/15 03:41:02;;;;;;;11.20;3.38;;;;;;;2.60;87.85;98384.75;5015247;28;20384;-75
2021/03/15 03:43:27;;;;;;;11.75;3.60;;;;;;;2.63;87.62;98389.75;5019108;28;20052;-75
2021/03/15 03:45:53;;;;;;;10.10;3.35;;;;;;;2.75;87.49;98395.59;5015468;28;20089;-75
2021/03/15 03:48:18;;;;;;;6.68;3.22;;;;;;;2.75;87.53;98388.47;5011518;28;20021;-75
2021/03/15 03:50:44;;;;;;;9.88;3.50;;;;;;;2.71;87.35;98384.44;5013051;28;20037;-76
2021/03/15 03:53:21;;;;;;;5.45;3.35;;;;;;;2.79;87.44;98403.13;5011290;28;20022;-75
2021/03/15 03:56:00;;;;;;;8.85;3.13;;;;;;;2.82;86.63;98386.78;4993651;28;20122;-74
2021/03/15 03:58:30;;;;;;;5.97;2.92;;;;;;;2.74;87.07;98383.28;4975696;28;20373;-74
2021/03/15 04:00:57;;;;;;;11.52;3.40;;;;;;;2.55;86.77;98357.69;4992722;28;20507;-74
2021/03/15 04:03:25;;;;;;;10.10;3.40;;;;;;;2.61;87.36;98368.53;5002619;28;20022;-75
2021/03/15 04:05:57;;;;;;;7.72;3.58;;;;;;;2.67;87.88;98380.41;5013503;28;20081;-75
2021/03/15 04:08:26;;;;;;;11.73;3.70;;;;;;;2.68;87.69;98371.41;5020739;28;20079;-75
2021/03/15 04:10:52;;;;;;;19.17;4.10;;;;;;;2.66;87.29;98368.06;5015435;28;20021;-75
2021/03/15 04:13:22;;;;;;;8.73;3.45;;;;;;;2.65;87.13;98369.06;5004485;28;20049;-75
2021/03/15 04:15:48;;;;;;;9.25;3.70;;;;;;;2.68;86.94;98374.06;5027801;28;20034;-76
2021/03/15 04:18:15;;;;;;;7.20;3.15;;;;;;;2.63;86.94;98379.06;5022947;28;20090;-75
2021/03/15 04:20:43;;;;;;;10.77;4.30;;;;;;;2.56;87.47;98375.38;5035473;28;20037;-75
2021/03/15 04:23:16;;;;;;;5.70;3.28;;;;;;;2.48;87.44;98362.84;5038828;28;20002;-74
2021/03/15 04:25:44;;;;;;;5.97;3.72;;;;;;;2.35;87.57;98349.13;5026059;28;20010;-74
2021/03/15 04:28:10;;;;;;;10.77;4.45;;;;;;;2.29;88.12;98349.78;5034043;28;20015;-75
2021/03/15 04:30:37;;;;;;;6.75;4.10;;;;;;;2.23;88.38;98359.28;5023199;28;20037;-75
2021/03/15 04:33:03;;;;;;;8.40;4.03;;;;;;;2.16;88.70;98339.56;5023142;28;20021;-75
2021/03/15 04:35:31;;;;;;;9.05;4.25;;;;;;;2.19;88.80;98347.22;5035958;28;20097;-78
2021/03/15 04:38:01;;;;;;;9.15;4.78;;;;;;;2.14;88.94;98329.03;5030493;28;20021;-77
2021/03/15 04:40:30;;;;;;;8.35;3.85;;;;;;;2.18;89.08;98342.91;5041428;28;20049;-77
2021/03/15 04:43:00;;;;;;;13.35;3.95;;;;;;;2.14;88.88;98328.19;5039024;28;20043;-76
2021/03/15 04:45:28;;;;;;;7.95;4.18;;;;;;;2.21;89.35;98339.91;5018951;28;20029;-76
2021/03/15 04:47:54;;;;;;;10.60;4.13;;;;;;;2.18;89.61;98341.06;5037845;28;20088;-75
2021/03/15 04:50:20;;;;;;;11.80;3.90;;;;;;;2.18;89.20;98329.56;5035788;28;20371;-75
2021/03/15 04:52:47;;;;;;;11.48;4.35;;;;;;;2.19;88.68;98328.53;5015472;28;20049;-75
2021/03/15 04:55:13;;;;;;;12.77;4.32;;;;;;;2.18;89.13;98318.88;5027888;28;20028;-75
2021/03/15 04:57:40;;;;;;;13.30;4.30;;;;;;;2.10;89.04;98318.84;5036520;28;20104;-75
2021/03/15 05:00:08;;;;;;;8.25;4.00;;;;;;;2.18;89.86;98329.56;5008187;28;20021;-69
2021/03/15 05:02:36;;;;;;;7.85;4.22;;;;;;;2.13;89.90;98335.38;5008995;28;20034;-75
2021/03/15 05:05:03;;;;;;;11.02;4.45;;;;;;;2.05;89.89;98321.16;5011165;28;20032;-71
2021/03/15 05:07:30;;;;;;;15.82;4.72;;;;;;;2.14;89.90;98325.53;5015226;28;20052;-75
2021/03/15 05:09:58;;;;;;;8.95;4.30;;;;;;;2.08;89.98;98318.19;4998079;28;20065;-76
2021/03/15 05:12:24;;;;;;;11.63;4.13;;;;;;;2.12;90.48;98323.03;5014771;28;20026;-74
2021/03/15 05:14:51;;;;;;;11.85;3.97;;;;;;;2.09;90.60;98322.50;4996961;28;20365;-74
2021/03/15 05:17:16;;;;;;;10.20;4.43;;;;;;;2.04;90.48;98314.16;5015733;28;20041;-74
2021/03/15 05:19:43;;;;;;;13.63;4.32;;;;;;;1.99;90.94;98303.94;5015634;28;20030;-77
2021/03/15 05:22:11;;;;;;;8.48;4.32;;;;;;;1.90;90.71;98295.09;5012565;28;20175;-76
2021/03/15 05:24:37;;;;;;;11.65;3.97;;;;;;;2.05;90.76;98300.66;5027859;28;20038;-77
2021/03/15 05:27:04;;;;;;;7.80;3.75;;;;;;;2.13;90.24;98308.69;4997906;28;20022;-75
2021/03/15 05:29:32;;;;;;;6.32;3.53;;;;;;;2.16;90.69;98310.19;4998190;28;20037;-72
2021/03/15 05:31:57;;;;;;;9.25;3.67;;;;;;;2.12;90.38;98291.00;4985948;28;20034;-75
2021/03/15 05:34:24;;;;;;;8.90;3.83;;;;;;;2.20;90.71;98300.84;5000284;28;20037;-72
2021/03/15 05:36:50;;;;;;;7.05;3.75;;;;;;;2.14;90.86;98289.00;4996341;28;20530;-75
2021/03/15 05:39:16;;;;;;;12.35;3.63;;;;;;;2.10;90.53;98290.34;4999660;28;20026;-77
2021/03/15 05:41:50;;;;;;;7.80;3.35;;;;;;;2.11;90.64;98292.00;5000515;28;20030;-76
2021/03/15 05:44:42;;;;;;;10.48;4.43;;;;;;;2.04;91.53;98295.47;5003421;28;20030;-76
2021/03/15 05:47:25;;;;;;;11.10;3.70;;;;;;;2.15;91.20;98284.53;5000763;28;20025;-76
2021/03/15 05:50:08;;;;;;;8.45;3.35;;;;;;;2.12;91.53;98282.16;4998024;28;20423;-78
2021/03/15 05:52:46;;;;;;;11.93;3.60;;;;;;;2.13;91.48;98274.00;5004831;28;20057;-74
2021/03/15 05:55:36;;;;;;;6.53;3.78;;;;;;;2.15;91.62;98281.84;4993621;28;20065;-71
2021/03/15 05:58:40;;;;;;;9.20;4.00;;;;;;;2.22;91.50;98282.03;5009584;28;20532;-72
2021/03/15 06:01:23;;;;;;;11.35;3.70;;;;;;;2.25;92.09;98273.69;4990967;28;20041;-74
2021/03/15 06:04:26;;;;;;;8.05;3.13;;;;;;;2.24;91.77;98272.84;4987013;28;20045;-73
2021/03/15 06:06:53;;;;;;;7.88;2.90;;;;;;;2.15;90.65;98257.84;5010102;28;20030;-73
2021/03/15 06:09:20;;;;;;;6.15;2.80;;;;;;;2.08;89.77;98256.81;5002264;28;20088;-72
2021/03/15 06:11:50;;;;;;;9.65;3.00;;;;;;;2.10;90.66;98258.31;4996476;28;20030;-74
2021/03/15 06:14:16;;;;;;;7.97;3.30;;;;;;;2.11;90.82;98256.47;4982730;28;20022;-75
2021/03/15 06:16:42;;;;;;;6.00;2.95;;;;;;;2.01;91.09;98247.78;5005757;28;20480;-70
2021/03/15 06:19:08;;;;;;;8.85;2.70;;;;;;;2.02;90.78;98252.09;5014080;28;20114;-70
2021/03/15 06:21:35;;;;;;;5.53;2.90;;;;;;;2.00;91.27;98230.09;5014006;28;20034;-70
2021/03/15 06:24:01;;;;;;;9.45;3.45;;;;;;;2.06;91.05;98242.78;4982911;28;20030;-74
2021/03/15 06:26:31;;;;;;;6.10;3.10;;;;;;;2.11;91.21;98237.81;5003520;28;20053;-74
2021/03/15 06:29:03;;;;;;;7.03;2.70;;;;;;;2.05;91.18;98228.63;5012973;28;20113;-77
2021/03/15 06:31:31;;;;;;;6.43;2.80;;;;;;;2.06;91.04;98227.59;5012690;28;20026;-74
2021/03/15 06:33:58;;;;;;;10.90;2.97;;;;;;;2.07;91.17;98215.09;4998158;28;20476;-79
2021/03/15 06:36:24;;;;;;;5.53;3.00;;;;;;;2.15;91.00;98231.16;5011841;28;20072;-77
2021/03/15 06:38:51;;;;;;;7.05;3.25;;;;;;;2.13;90.75;98233.97;5009265;28;20026;-75
2021/03/15 06:41:17;;;;;;;4.68;3.00;;;;;;;2.16;91.22;98225.63;5011558;28;20029;-77
2021/03/15 06:43:43;;;;;;;4.82;2.72;;;;;;;2.18;90.48;98218.31;5010284;28;20116;-77
2021/03/15 06:46:09;;;;;;;6.82;3.20;;;;;;;2.23;90.83;98211.63;5012111;28;20112;-78
2021/03/15 06:48:34;;;;;;;7.32;2.90;;;;;;;2.27;90.95;98221.81;4999550;28;20019;-76
2021/03/15 06:51:00;;;;;;;6.00;3.10;;;;;;;2.25;91.07;98214.97;4994694;28;20029;-75
2021/03/15 06:53:39;;;;;;;10.10;3.25;;;;;;;2.28;90.87;98215.50;4996786;28;20364;-76
2021/03/15 06:56:13;;;;;;;6.22;3.65;;;;;;;2.26;90.98;98209.47;5009927;28;20097;-76
2021/03/15 06:58:53;;;;;;;5.30;3.25;;;;;;;2.28;91.14;98210.16;4996228;28;20018;-79
2021/03/15 07:01:23;;;;;;;6.18;3.13;;;;;;;2.36;91.17;98207.47;5010743;28;20079;-76
2021/03/15 07:03:50;;;;;;;6.40;3.38;;;;;;;2.31;91.56;98212.47;5013945;28;20498;-76
2021/03/15 07:06:18;;;;;;;7.82;3.42;;;;;;;2.39;92.10;98214.31;4994961;28;20097;-72
2021/03/15 07:08:44;;;;;;;5.55;3.30;;;;;;;2.36;91.44;98218.16;5009233;28;20021;-73
2021/03/15 07:11:20;;;;;;;7.25;3.25;;;;;;;2.40;91.07;98215.97;4994697;28;20026;-72
2021/03/15 07:13:46;;;;;;;7.35;3.22;;;;;;;2.45;91.41;98192.28;4992960;28;20164;-78
2021/03/15 07:16:55;;;;;;;7.90;3.72;;;;;;;2.58;91.11;98210.50;4986121;28;20113;-78
2021/03/15 07:19:23;;;;;;;8.48;3.65;;;;;;;2.58;91.61;98203.31;4996521;28;20117;-76
2021/03/15 07:21:49;;;;;;;6.90;4.03;;;;;;;2.53;91.33;98196.81;5011717;28;20030;-77
2021/03/15 07:24:14;;;;;;;7.82;3.78;;;;;;;2.79;90.78;98209.97;5008813;28;20553;-76
2021/03/15 07:26:44;;;;;;;7.70;3.30;;;;;;;2.83;90.90;98192.63;5003756;28;20105;-76
2021/03/15 07:29:16;;;;;;;8.65;3.25;;;;;;;2.96;89.77;98194.75;5002331;28;20104;-75
2021/03/15 07:31:49;;;;;;;6.15;3.05;;;;;;;2.92;89.72;98198.78;4999173;28;20026;-76
2021/03/15 07:34:20;;;;;;;5.20;3.00;;;;;;;3.00;90.18;98212.13;5002957;28;20030;-73
2021/03/15 07:36:59;;;;;;;5.35;2.70;;;;;;;2.89;90.95;98202.63;5009781;28;20438;-77
2021/03/15 07:39:27;;;;;;;;;;;;;;;2.90;91.01;98228.31;5013075;28;20379;-76
2021/03/15 07:41:53;;;;;;;6.03;2.35;;;;;;;2.72;90.52;98212.47;4989738;28;19913;-72
2021/03/15 07:44:26;;;;;;;4.18;2.13;;;;;;;2.80;90.29;98227.66;4996393;28;20053;-78
2021/03/15 07:46:56;;;;;;;2.85;1.77;;;;;;;2.83;90.64;98225.50;5000444;28;20021;-73
2021/03/15 07:49:27;;;;;;;2.20;1.35;;;;;;;2.61;88.70;98219.00;5002133;28;20022;-80
2021/03/15 07:51:54;;;;;;;2.63;1.30;;;;;;;2.55;89.92;98229.53;4992008;28;20026;-78
2021/03/15 07:54:31;;;;;;;2.28;1.52;;;;;;;2.50;90.14;98218.50;4995415;28;20033;-79
2021/03/15 07:57:19;;;;;;;2.67;1.45;;;;;;;2.54;89.80;98220.69;5001147;28;20026;-78
2021/03/15 07:59:49;;;;;;;2.70;1.33;;;;;;;2.47;89.81;98218.84;4999651;28;20545;-78
2021/03/15 08:02:37;;;;;;;2.90;1.73;;;;;;;2.46;89.98;98228.66;5011292;28;20273;-78
2021/03/15 08:05:03;;;;;;;2.17;1.38;;;;;;;2.44;90.13;98216.47;5014048;28;20038;-79
2021/03/15 08:07:29;;;;;;;2.25;1.30;;;;;;;2.58;90.80;98235.34;4993965;28;20038;-78
2021/03/15 08:09:56;;;;;;;2.20;1.45;;;;;;;2.66;89.73;98237.19;5012880;28;20030;-78
2021/03/15 08:12:29;;;;;;;1.30;0.95;;;;;;;2.67;89.72;98243.34;4992624;28;20480;-79
2021/03/15 08:15:13;;;;;;;3.22;0.90;;;;;;;2.69;89.30;98228.84;5013267;28;20030;-76
2021/03/15 08:17:44;;;;;;;2.53;1.00;;;;;;;2.77;89.15;98239.50;5003071;28;20035;-74
2021/03/15 08:20:11;;;;;;;2.00;1.23;;;;;;;2.54;88.74;98238.50;5006895;28;20096;-74
2021/03/15 08:22:38;;;;;;;1.50;1.00;;;;;;;2.44;89.19;98221.81;4998474;28;20037;-77
2021/03/15 08:25:06;;;;;;;1.60;1.00;;;;;;;2.46;89.21;98236.66;5013996;28;20057;-75
2021/03/15 08:27:38;;;;;;;2.55;1.20;;;;;;;2.50;89.90;98234.53;5017041;28;20560;-76
2021/03/15 08:30:06;;;;;;;1.95;1.30;;;;;;;2.52;90.77;98235.19;5015415;28;20045;-76
2021/03/15 08:32:35;;;;;;;5.85;1.80;;;;;;;2.61;89.99;98227.00;5010185;28;20480;-77
2021/03/15 08:35:03;;;;;;;3.65;1.77;;;;;;;2.67;89.97;98232.69;5009867;28;20064;-76
2021/03/15 08:37:48;;;;;;;2.03;1.45;;;;;;;2.76;89.48;98240.53;5013763;28;20025;-76
2021/03/15 08:40:13;;;;;;;2.30;1.83;;;;;;;2.61;90.12;98236.84;4996687;28;20156;-75
2021/03/15 08:42:38;;;;;;;4.18;1.83;;;;;;;2.69;91.11;98226.16;5015877;28;20068;-76
2021/03/15 08:45:27;;;;;;;3.78;1.63;;;;;;;2.80;90.24;98241.00;4994749;28;20030;-75
2021/03/15 08:47:53;;;;;;;6.95;1.80;;;;;;;2.74;90.73;98237.19;5015028;28;20104;-76
2021/03/15 08:50:34;;;;;;;4.38;2.08;;;;;;;2.80;90.46;98236.53;4994324;28;20402;-75
2021/03/15 08:52:59;;;;;;;2.25;1.70;;;;;;;2.76;90.38;98243.19;5012456;28;20586;-75
2021/03/15 08:55:46;;;;;;;3.08;1.52;;;;;;;2.84;91.52;98237.84;4993487;28;20026;-74
2021/03/15 08:58:41;;;;;;;4.43;1.73;;;;;;;2.94;91.30;98244.88;4997520;28;20022;-75
2021/03/15 09:01:11;;;;;;;3.55;1.50;;;;;;;2.90;90.88;98238.19;4997687;28;20056;-81
2021/03/15 09:03:49;;;;;;;3.42;1.65;;;;;;;3.12;91.05;98242.84;5012984;28;20116;-75
2021/03/15 09:06:15;;;;;;;5.53;1.67;;;;;;;3.15;91.16;98231.81;5012805;28;20030;-75
2021/03/15 09:08:59;;;;;;;3.50;1.40;;;;;;;3.33;90.95;98241.44;5014905;28;20033;-75
2021/03/15 09:11:33;;;;;;;2.97;1.08;;;;;;;3.42;90.48;98232.41;4999392;28;20475;-75
2021/03/15 09:14:17;;;;;;;2.10;1.27;;;;;;;3.38;90.14;98236.41;5004917;28;20112;-73
2021/03/15 09:16:48;;;;;;;4.93;1.65;;;;;;;3.39;91.05;98241.59;5007467;28;20030;-74
2021/03/15 09:19:19;;;;;;;8.98;2.30;;;;;;;3.27;91.29;98234.94;5002307;28;20022;-75
2021/03/15 09:21:49;;;;;;;4.07;1.85;;;;;;;3.43;91.81;98234.06;5020216;28;20059;-79
2021/03/15 09:24:35;;;;;;;3.90;1.40;;;;;;;3.54;91.18;98243.53;4997193;28;20032;-80
2021/03/15 09:27:09;;;;;;;3.33;1.15;;;;;;;3.57;91.75;98232.53;4997906;28;20064;-77
2021/03/15 09:29:35;;;;;;;2.45;1.17;;;;;;;3.73;91.74;98227.94;4995265;28;20028;-76
2021/03/15 09:32:11;;;;;;;1.95;0.93;;;;;;;3.89;90.74;98232.38;5004915;28;20124;-72
2021/03/15 09:34:37;;;;;;;3.60;1.30;;;;;;;3.94;90.42;98245.25;5015298;28;20165;-72
2021/03/15 09:37:05;;;;;;;2.20;1.17;;;;;;;3.94;89.88;98234.53;5013739;28;20533;-72
2021/03/15 09:39:31;;;;;;;1.75;0.90;;;;;;;4.03;90.42;98228.13;5015481;28;20036;-73
2021/03/15 09:41:58;;;;;;;2.03;1.15;;;;;;;4.27;90.24;98221.81;5008973;28;20022;-74
2021/03/15 09:44:26;;;;;;;2.78;0.82;;;;;;;4.34;89.46;98220.06;5000674;28;20033;-75
2021/03/15 09:46:52;;;;;;;2.20;1.23;;;;;;;4.32;89.74;98229.28;5013887;28;20475;-75
2021/03/15 09:49:38;;;;;;;2.55;1.27;;;;;;;4.49;88.81;98228.16;5006010;28;20476;-73
2021/03/15 09:52:15;;;;;;;2.28;1.20;;;;;;;4.31;88.80;98227.63;5013381;28;20049;-74
2021/03/15 09:54:45;;;;;;;2.47;1.30;;;;;;;4.53;89.20;98236.66;5012846;28;20026;-77
2021/03/15 09:57:13;;;;;;;5.28;1.70;;;;;;;4.51;90.02;98234.19;4996637;28;20057;-78
2021/03/15 09:59:38;;;;;;;4.50;2.42;;;;;;;4.58;89.46;98228.94;4992192;28;20034;-75
2021/03/15 10:02:04;;;;;;;3.40;2.10;;;;;;;4.34;89.46;98237.97;5004839;28;20116;-72
2021/03/15 10:04:40;;;;;;;2.85;1.80;;;;;;;4.43;89.65;98238.75;5014750;28;20018;-71
2021/03/15 10:07:11;;;;;;;3.78;2.30;;;;;;;4.32;89.46;98230.13;5008014;28;20068;-74
2021/03/15 10:09:39;;;;;;;4.03;2.10;;;;;;;4.34;89.42;98227.25;4997591;28;20049;-78
2021/03/15 10:12:06;;;;;;;3.55;2.17;;;;;;;4.32;89.65;98238.16;5006427;28;20132;-75
2021/03/15 10:14:32;;;;;;;5.18;2.40;;;;;;;4.48;89.60;98241.72;4998823;28;20117;-73
2021/03/15 10:17:03;;;;;;;5.00;2.78;;;;;;;4.43;90.20;98244.97;4995191;28;20424;-74
2021/03/15 10:19:29;;;;;;;4.20;2.13;;;;;;;4.49;90.49;98246.91;5004762;28;20030;-75
2021/03/15 10:22:13;;;;;;;5.25;2.88;;;;;;;4.59;90.04;98236.78;4990618;28;20033;-74
2021/03/15 10:24:39;;;;;;;2.92;1.90;;;;;;;4.66;88.94;98241.44;4999222;28;20061;-74
2021/03/15 10:27:14;;;;;;;2.63;1.52;;;;;;;4.70;88.23;98234.72;5003947;28;20055;-76
2021/03/15 10:29:41;;;;;;;3.20;1.73;;;;;;;4.73;87.22;98237.84;5014234;28;20117;-73
2021/03/15 10:32:07;;;;;;;2.13;1.23;;;;;;;4.67;87.19;98237.75;4996227;28;20080;-76
2021/03/15 10:34:32;;;;;;;3.88;1.70;;;;;;;4.68;87.82;98239.41;5012195;28;20022;-76
2021/03/15 10:36:57;;;;;;;2.08;1.50;;;;;;;4.65;87.85;98253.16;4995256;28;20395;-75
2021/03/15 10:39:24;;;;;;;3.03;1.73;;;;;;;4.72;88.50;98251.44;4995597;28;20483;-75
2021/03/15 10:41:51;;;;;;;2.33;1.70;;;;;;;4.65;88.13;98239.78;5008538;28;20025;-76
2021/03/15 10:44:18;;;;;;;3.35;2.25;;;;;;;4.75;88.83;98246.56;4993704;28;20076;-75
2021/03/15 10:46:55;;;;;;;2.78;1.90;;;;;;;4.84;87.84;98260.72;5012469;28;20026;-77
2021/03/15 10:49:23;;;;;;;4.25;1.80;;;;;;;4.94;87.33;98252.44;4996820;28;20087;-77
2021/03/15 10:51:51;;;;;;;1.60;1.40;;;;;;;4.96;86.54;98266.50;5002626;28;20476;-76
2021/03/15 10:54:45;;;;;;;2.22;1.42;;;;;;;5.04;86.40;98261.88;5002440;28;20050;-77
2021/03/15 10:57:16;;;;;;;3.28;1.70;;;;;;;5.11;86.38;98261.13;5004259;28;20088;-76
2021/03/15 10:59:43;;;;;;;3.50;1.70;;;;;;;5.00;86.17;98249.88;4997061;28;20026;-72
2021/03/15 11:02:10;;;;;;;2.28;1.80;;;;;;;4.99;86.84;98272.31;5007552;28;20029;-74
2021/03/15 11:04:40;;;;;;;3.00;1.95;;;;;;;4.86;86.92;98253.31;5028800;28;20040;-73
2021/03/15 11:07:28;;;;;;;2.88;1.95;;;;;;;4.84;87.94;98264.22;5017469;28;20018;-73
2021/03/15 11:09:56;;;;;;;2.83;2.00;;;;;;;4.88;87.77;98266.56;5021335;28;20036;-73
2021/03/15 11:12:32;;;;;;;2.10;1.80;;;;;;;4.89;87.06;98257.50;5011858;28;20128;-73
2021/03/15 11:15:09;;;;;;;3.08;2.03;;;;;;;4.97;87.31;98268.97;5024593;28;20060;-73
2021/03/15 11:17:35;;;;;;;2.85;2.08;;;;;;;5.13;86.90;98268.00;5032982;28;20033;-74
2021/03/15 11:20:00;;;;;;;3.15;1.92;;;;;;;5.20;85.85;98270.78;5012672;28;20077;-73
2021/03/15 11:22:27;;;;;;;3.38;1.90;;;;;;;5.27;85.94;98277.94;5005684;28;20018;-73
2021/03/15 11:25:10;;;;;;;1.88;1.60;;;;;;;5.27;84.35;98277.09;4991180;28;20030;-73
2021/03/15 11:27:35;;;;;;;2.25;1.65;;;;;;;5.41;85.02;98295.06;5010367;28;20088;-74
2021/03/15 11:30:01;;;;;;;3.75;1.80;;;;;;;5.55;84.51;98281.84;5005421;28;20434;-74
2021/03/15 11:32:27;;;;;;;2.72;1.77;;;;;;;5.90;83.78;98301.75;5010882;28;20025;-73
2021/03/15 11:34:53;;;;;;;3.45;1.77;;;;;;;5.89;83.13;98300.94;5009161;28;20116;-73
2021/03/15 11:37:29;;;;;;;3.00;2.20;;;;;;;6.04;84.08;98297.41;5001565;28;20108;-73
2021/03/15 11:39:55;;;;;;;3.45;1.83;;;;;;;6.20;82.47;98304.44;5008222;28;20025;-73
2021/03/15 11:42:25;;;;;;;2.28;1.58;;;;;;;6.23;82.80;98288.75;5008940;28;20022;-73
2021/03/15 11:44:50;;;;;;;2.03;1.50;;;;;;;6.70;81.30;98302.72;5003668;28;20415;-74
2021/03/15 11:47:15;;;;;;;3.13;1.33;;;;;;;6.93;79.53;98294.47;5011885;28;20014;-74
2021/03/15 11:49:41;;;;;;;1.40;1.20;;;;;;;6.95;79.21;98304.03;5017386;28;20029;-74
2021/03/15 11:52:07;;;;;;;2.08;1.40;;;;;;;6.79;78.02;98307.81;5018098;28;20017;-75
2021/03/15 11:54:32;;;;;;;1.67;1.30;;;;;;;6.70;79.85;98306.25;4991648;28;20042;-75